Crown Of Scandinavia — OXRA6 — position and weather

sailwx.info

Track history (hours):
 
Tides and Currents Weather Stations Pressure Air Temp Water Temp Dewpoint Dewpoint Depression Visibility Wind Speed Wind Dir Waves Ship Positions

Crown Of Scandinavia

Last reported at 2017-Dec-11 17:01 UTC. Time now 2017-Dec-12 04:29 UTC.
Position N 59°38' E 010°37'.

Length 171 m; draft 6.3 m.

Type: Ship. MMSI: 219592000.

Date/timePositionNaut miles runAvg speedWind from/ knotsBaromVisibWave heightAir tempDewpointWater temp
2017-Dec-11 17:01N 59°38' E 010°37'714.3
2017-Dec-11 16:30N 59°45' E 010°33'816.0
2017-Dec-11 16:00N 59°52' E 010°38'4 7.4
2017-Dec-11 15:30N 59°54' E 010°45'0 0.0
2017-Dec-11 14:59N 59°54' E 010°45'0 0.0
2017-Dec-11 14:29N 59°54' E 010°45'0 0.0
2017-Dec-11 13:59N 59°54' E 010°45'0 0.0
2017-Dec-11 13:29N 59°54' E 010°45'0 0.0
2017-Dec-11 12:59N 59°54' E 010°45'0 0.0
2017-Dec-11 12:29N 59°54' E 010°45'0 0.0
2017-Dec-11 11:59N 59°54' E 010°45'0 0.0
2017-Dec-11 11:29N 59°54' E 010°45'0 0.0
2017-Dec-11 10:59N 59°54' E 010°45'0 0.0
2017-Dec-11 10:28N 59°54' E 010°45'0 0.0
2017-Dec-11 09:59N 59°54' E 010°45'0 0.0
2017-Dec-11 09:29N 59°54' E 010°45'0 0.0
2017-Dec-11 08:58N 59°54' E 010°45'0 0.5
2017-Dec-11 08:30N 59°54' E 010°44'611.9
2017-Dec-11 08:00N 59°50' E 010°36'714.6
2017-Dec-11 07:30N 59°43' E 010°36'612.8
2017-Dec-11 07:00N 59°36' E 010°38'815.2
2017-Dec-11 06:30N 59°29' E 010°35'715.0
2017-Dec-11 06:01N 59°21' E 010°35'815.3
2017-Dec-11 05:30N 59°14' E 010°38'815.1
2017-Dec-11 05:00N 59°06' E 010°39'815.3
2017-Dec-11 04:31N 58°59' E 010°37'815.8
2017-Dec-11 04:00N 58°51' E 010°38'816.1
2017-Dec-11 03:30N 58°43' E 010°36'816.7
2017-Dec-11 03:00N 58°35' E 010°36'817.0
2017-Dec-11 02:30N 58°26' E 010°39'917.1
2017-Dec-11 02:00N 58°18' E 010°43'816.9
2017-Dec-11 01:30N 58°10' E 010°50'917.0
2017-Dec-11 01:00N 58°02' E 010°56'817.0
2017-Dec-11 00:30N 57°55' E 011°02'816.4
2017-Dec-11 00:00N 57°47' E 011°08'816.1
2017-Dec-10 23:30N 57°40' E 011°15'816.2
2017-Dec-10 23:00N 57°32' E 011°21'816.1
2017-Dec-10 22:30N 57°25' E 011°28'816.4
2017-Dec-10 22:00N 57°18' E 011°33'816.7
2017-Dec-10 21:30N 57°10' E 011°39'816.6
2017-Dec-10 21:00N 57°02' E 011°44'4916.5
2017-Dec-10 18:03N 56°18' E 012°23'116.5
2017-Dec-10 18:00N 56°17' E 012°23'816.6
2017-Dec-10 17:30N 56°10' E 012°29'917.8
2017-Dec-10 17:00N 56°03' E 012°39'917.5
2017-Dec-10 16:30N 55°55' E 012°44'816.2
2017-Dec-10 16:00N 55°47' E 012°42'611.1
2017-Dec-10 15:30N 55°42' E 012°36'0 0.0
2017-Dec-10 14:59N 55°42' E 012°36'0 0.0
2017-Dec-10 14:29N 55°42' E 012°36'0 0.0
2017-Dec-10 13:59N 55°42' E 012°36'0 0.0
2017-Dec-10 13:29N 55°42' E 012°36'0 0.0
2017-Dec-10 12:59N 55°42' E 012°36'0 0.0
2017-Dec-10 12:29N 55°42' E 012°36'0 0.0
2017-Dec-10 11:59N 55°42' E 012°36'0 0.0
2017-Dec-10 11:29N 55°42' E 012°36'0 0.0
2017-Dec-10 10:59N 55°42' E 012°36'0 0.0
2017-Dec-10 10:29N 55°42' E 012°36'0 0.0
2017-Dec-10 09:59N 55°42' E 012°36'0 0.0
2017-Dec-10 09:29N 55°42' E 012°36'0 0.0
2017-Dec-10 08:59N 55°42' E 012°36'0 0.7
2017-Dec-10 08:30N 55°42' E 012°36'612.7
2017-Dec-10 08:00N 55°48' E 012°42'714.4
2017-Dec-10 07:31N 55°55' E 012°38'815.1
2017-Dec-10 07:01N 56°02' E 012°39'815.6
2017-Dec-10 06:31N 56°08' E 012°30'816.1
2017-Dec-10 06:00N 56°16' E 012°25'5815.6
2017-Dec-10 02:19N 57°11' E 011°54'516.6
2017-Dec-10 02:01N 57°16' E 011°51'816.9
2017-Dec-10 01:31N 57°23' E 011°43'917.1
2017-Dec-10 01:01N 57°31' E 011°36'816.7
2017-Dec-10 00:31N 57°38' E 011°29'816.3
2017-Dec-10 00:01N 57°45' E 011°23'917.4
2017-Dec-09 23:31N 57°53' E 011°15'917.1
2017-Dec-09 23:00N 58°01' E 011°07'816.1
2017-Dec-09 22:31N 58°08' E 011°00'815.8
2017-Dec-09 22:01N 58°15' E 010°54'915.9
2017-Dec-09 21:27N 58°23' E 010°47'715.8
2017-Dec-09 21:00N 58°29' E 010°41'816.0
2017-Dec-09 20:30N 58°37' E 010°37'816.1
2017-Dec-09 20:01N 58°45' E 010°35'816.4
2017-Dec-09 19:31N 58°53' E 010°35'917.0
2017-Dec-09 19:01N 59°01' E 010°37'816.8
2017-Dec-09 18:31N 59°10' E 010°38'816.9
2017-Dec-09 18:01N 59°18' E 010°36'817.0
2017-Dec-09 17:31N 59°27' E 010°33'917.0
2017-Dec-09 17:01N 59°35' E 010°38'714.4
2017-Dec-09 16:31N 59°42' E 010°35'815.9
2017-Dec-09 16:01N 59°50' E 010°35'712.9
2017-Dec-09 15:30N 59°54' E 010°45'0 0.4
2017-Dec-09 15:01N 59°54' E 010°45'0 0.0
2017-Dec-09 14:31N 59°54' E 010°45'0 0.0
2017-Dec-09 13:58N 59°54' E 010°45'0 0.0
2017-Dec-09 13:31N 59°54' E 010°45'0 0.0
2017-Dec-09 13:01N 59°54' E 010°45'0 0.0
2017-Dec-09 12:31N 59°54' E 010°45'0 0.0
2017-Dec-09 12:01N 59°54' E 010°45'0 0.0
2017-Dec-09 11:31N 59°54' E 010°45'0 0.0
2017-Dec-09 11:01N 59°54' E 010°45'0 0.0
2017-Dec-09 10:28N 59°54' E 010°45'0 0.0
2017-Dec-09 10:01N 59°54' E 010°45'0 0.0
2017-Dec-09 09:31N 59°54' E 010°45'0 0.0
2017-Dec-09 09:01N 59°54' E 010°45'0 0.5
2017-Dec-09 08:30N 59°54' E 010°44'713.3
2017-Dec-09 08:00N 59°49' E 010°35'815.0
2017-Dec-09 07:30N 59°42' E 010°36'713.7
2017-Dec-09 07:00N 59°35' E 010°38'815.1
2017-Dec-09 06:30N 59°28' E 010°34'714.8
2017-Dec-09 06:00N 59°20' E 010°36'815.5
2017-Dec-09 05:30N 59°13' E 010°38'816.2
2017-Dec-09 05:00N 59°05' E 010°41'815.3
2017-Dec-09 04:30N 58°57' E 010°42'815.3
2017-Dec-09 04:00N 58°50' E 010°44'815.5
2017-Dec-09 03:30N 58°42' E 010°47'815.3
2017-Dec-09 03:00N 58°35' E 010°50'816.1
2017-Dec-09 02:30N 58°27' E 010°55'918.2
2017-Dec-09 02:00N 58°18' E 011°02'918.0
2017-Dec-09 01:31N 58°10' E 011°08'917.9
2017-Dec-09 01:00N 58°02' E 011°13'917.6
2017-Dec-09 00:31N 57°53' E 011°19'816.6
2017-Dec-09 00:00N 57°46' E 011°24'817.0
2017-Dec-08 23:31N 57°38' E 011°29'917.2
2017-Dec-08 23:01N 57°30' E 011°35'816.9
2017-Dec-08 22:31N 57°22' E 011°43'816.5
2017-Dec-08 22:00N 57°15' E 011°50'816.5
2017-Dec-08 21:31N 57°08' E 011°57'4316.4
2017-Dec-08 18:53N 56°27' E 012°21'715.5
2017-Dec-08 18:27N 56°20' E 012°24'715.2
2017-Dec-08 18:00N 56°13' E 012°27'815.5
2017-Dec-08 17:30N 56°07' E 012°33'714.8
2017-Dec-08 17:00N 56°00' E 012°41'816.0
2017-Dec-08 16:30N 55°53' E 012°45'815.7
2017-Dec-08 16:00N 55°45' E 012°41'4 8.1
2017-Dec-08 15:30N 55°42' E 012°36'0 0.0
2017-Dec-08 14:58N 55°42' E 012°36'0 0.0
2017-Dec-08 14:28N 55°42' E 012°36'0 0.0
2017-Dec-08 13:58N 55°42' E 012°36'0 0.0
2017-Dec-08 13:28N 55°42' E 012°36'0 0.0
2017-Dec-08 12:58N 55°42' E 012°36'0 0.0
2017-Dec-08 12:28N 55°42' E 012°36'0 0.0
2017-Dec-08 11:58N 55°42' E 012°36'0 0.0
2017-Dec-08 11:28N 55°42' E 012°36'0 0.0
2017-Dec-08 10:58N 55°42' E 012°36'0 0.0
2017-Dec-08 10:28N 55°42' E 012°36'0 0.0
2017-Dec-08 09:58N 55°42' E 012°36'0 0.0
2017-Dec-08 09:28N 55°42' E 012°36'0 0.0
2017-Dec-08 08:58N 55°42' E 012°36'0 0.9
2017-Dec-08 08:30N 55°42' E 012°36'612.8
2017-Dec-08 08:00N 55°48' E 012°42'816.1
2017-Dec-08 07:30N 55°56' E 012°39'815.9
2017-Dec-08 07:00N 56°04' E 012°38'917.1
2017-Dec-08 06:31N 56°10' E 012°27'918.3
2017-Dec-08 06:00N 56°17' E 012°17'5018.4
2017-Dec-08 03:16N 57°03' E 011°39'518.6
2017-Dec-08 03:00N 57°08' E 011°37'918.7
2017-Dec-08 02:30N 57°17' E 011°31'918.1
2017-Dec-08 02:00N 57°25' E 011°26'816.1
2017-Dec-08 01:30N 57°33' E 011°23'917.4
2017-Dec-08 01:00N 57°42' E 011°19'817.0
2017-Dec-08 00:31N 57°50' E 011°16'815.9
2017-Dec-08 00:00N 57°58' E 011°14'714.5
2017-Dec-07 23:30N 58°05' E 011°10'713.5
2017-Dec-07 23:00N 58°11' E 011°08'714.2
2017-Dec-07 22:31N 58°18' E 011°03'714.2
2017-Dec-07 22:00N 58°24' E 010°58'714.3
2017-Dec-07 21:30N 58°31' E 010°51'713.2
2017-Dec-07 21:00N 58°37' E 010°47'612.5
2017-Dec-07 20:30N 58°43' E 010°47'612.9
2017-Dec-07 20:00N 58°50' E 010°46'713.2
2017-Dec-07 19:30N 58°56' E 010°43'713.2
2017-Dec-07 19:00N 59°03' E 010°41'714.3
2017-Dec-07 18:31N 59°10' E 010°39'816.4
2017-Dec-07 18:01N 59°18' E 010°36'816.7
2017-Dec-07 17:31N 59°26' E 010°33'816.5
2017-Dec-07 17:01N 59°34' E 010°38'714.7
2017-Dec-07 16:30N 59°41' E 010°36'714.8
2017-Dec-07 16:00N 59°48' E 010°34'714.4
2017-Dec-07 15:30N 59°54' E 010°43'1 1.3
2017-Dec-07 15:00N 59°54' E 010°45'0 0.0
2017-Dec-07 14:30N 59°54' E 010°45'0 0.0
2017-Dec-07 14:00N 59°54' E 010°45'0 0.0
2017-Dec-07 13:30N 59°54' E 010°45'0 0.0
2017-Dec-07 13:00N 59°54' E 010°45'0 0.0
2017-Dec-07 12:30N 59°54' E 010°45'0 0.0
2017-Dec-07 12:00N 59°54' E 010°45'0 0.0
2017-Dec-07 11:30N 59°54' E 010°45'0 0.0
2017-Dec-07 11:00N 59°54' E 010°45'0 0.0
2017-Dec-07 10:30N 59°54' E 010°45'0 0.0
2017-Dec-07 10:00N 59°54' E 010°45'0 0.0
2017-Dec-07 09:30N 59°54' E 010°45'0 0.0
2017-Dec-07 09:00N 59°54' E 010°45'1 1.2
2017-Dec-07 08:30N 59°54' E 010°44'613.0
2017-Dec-07 08:01N 59°49' E 010°35'714.2
2017-Dec-07 07:30N 59°42' E 010°36'713.5
2017-Dec-07 07:01N 59°35' E 010°38'816.0
2017-Dec-07 06:30N 59°28' E 010°34'816.4
2017-Dec-07 06:01N 59°20' E 010°36'816.1
2017-Dec-07 05:30N 59°12' E 010°39'815.2
2017-Dec-07 05:00N 59°04' E 010°39'714.9
2017-Dec-07 04:30N 58°56' E 010°40'815.2
2017-Dec-07 04:00N 58°49' E 010°40'815.3
2017-Dec-07 03:31N 58°41' E 010°40'816.4
2017-Dec-07 03:00N 58°33' E 010°41'917.9
2017-Dec-07 02:31N 58°24' E 010°45'917.9
2017-Dec-07 02:01N 58°16' E 010°48'917.8
2017-Dec-07 01:31N 58°07' E 010°50'917.5
2017-Dec-07 01:01N 57°58' E 010°54'917.7
2017-Dec-07 00:30N 57°50' E 010°58'816.5
2017-Dec-07 00:00N 57°42' E 011°04'917.3
2017-Dec-06 23:31N 57°36' E 011°16'917.3
2017-Dec-06 23:01N 57°29' E 011°25'918.0
2017-Dec-06 22:31N 57°21' E 011°32'917.4
2017-Dec-06 22:01N 57°13' E 011°38'917.5
2017-Dec-06 21:30N 57°04' E 011°43'  
2017-Dec-04 10:28N 55°42' E 012°36'0 0.0
2017-Dec-04 09:58N 55°42' E 012°36'0 0.0
2017-Dec-04 09:28N 55°42' E 012°36'0 0.0
2017-Dec-04 08:59N 55°42' E 012°36'1 1.4
2017-Dec-04 08:30N 55°43' E 012°37'612.2
2017-Dec-04 08:00N 55°48' E 012°42'815.4
2017-Dec-04 07:30N 55°55' E 012°39'815.6
2017-Dec-04 07:00N 56°03' E 012°39'816.2
2017-Dec-04 06:30N 56°09' E 012°29'816.5
2017-Dec-04 06:00N 56°17' E 012°23'6016.7
2017-Dec-04 02:23N 57°14' E 011°51'616.8
2017-Dec-04 02:00N 57°20' E 011°46'816.7
2017-Dec-04 01:30N 57°27' E 011°38'917.2
2017-Dec-04 01:01N 57°34' E 011°30'816.5
2017-Dec-04 00:30N 57°41' E 011°21'816.6
2017-Dec-04 00:01N 57°48' E 011°12'816.2
2017-Dec-03 23:31N 57°55' E 011°03'815.6
2017-Dec-03 23:00N 58°02' E 010°57'816.0
2017-Dec-03 22:30N 58°09' E 010°52'916.0
2017-Dec-03 21:58N 58°17' E 010°47'915.5
2017-Dec-03 21:24N 58°26' E 010°41'615.1
2017-Dec-03 21:01N 58°31' E 010°37'815.7
2017-Dec-03 20:30N 58°39' E 010°36'815.6
2017-Dec-03 20:01N 58°47' E 010°35'816.0
2017-Dec-03 19:31N 58°55' E 010°37'816.0
2017-Dec-03 19:00N 59°03' E 010°39'816.1
2017-Dec-03 18:30N 59°11' E 010°38'816.3
2017-Dec-03 18:00N 59°19' E 010°36'816.3
2017-Dec-03 17:30N 59°27' E 010°33'816.1
2017-Dec-03 17:01N 59°35' E 010°38'714.4
2017-Dec-03 16:30N 59°42' E 010°35'815.2
2017-Dec-03 16:00N 59°49' E 010°34'713.7
2017-Dec-03 15:30N 59°54' E 010°44'0 0.4
2017-Dec-03 14:59N 59°54' E 010°45'0 0.0
2017-Dec-03 14:29N 59°54' E 010°45'0 0.0
2017-Dec-03 13:59N 59°54' E 010°45'0 0.0
2017-Dec-03 13:29N 59°54' E 010°45'0 0.0
2017-Dec-03 12:59N 59°54' E 010°45'0 0.0
2017-Dec-03 12:29N 59°54' E 010°45'0 0.0
2017-Dec-03 11:59N 59°54' E 010°45'0 0.0
2017-Dec-03 11:29N 59°54' E 010°45'0 0.0
2017-Dec-03 10:59N 59°54' E 010°45'0 0.0
2017-Dec-03 10:29N 59°54' E 010°45'0 0.0
2017-Dec-03 09:59N 59°54' E 010°45'0 0.0
2017-Dec-03 09:29N 59°54' E 010°45'0 0.2
2017-Dec-03 09:01N 59°54' E 010°45'510.1
2017-Dec-03 08:30N 59°51' E 010°37'815.4
2017-Dec-03 08:01N 59°43' E 010°35'713.7
2017-Dec-03 07:31N 59°37' E 010°38'815.5
2017-Dec-03 07:01N 59°29' E 010°35'815.4
2017-Dec-03 06:31N 59°21' E 010°35'815.7
2017-Dec-03 06:01N 59°14' E 010°38'815.9
2017-Dec-03 05:31N 59°06' E 010°40'815.8
2017-Dec-03 05:01N 58°58' E 010°42'815.9
2017-Dec-03 04:31N 58°50' E 010°44'816.0
2017-Dec-03 04:01N 58°42' E 010°45'816.1
2017-Dec-03 03:31N 58°34' E 010°50'815.5
2017-Dec-03 03:01N 58°27' E 010°55'815.1
2017-Dec-03 02:30N 58°20' E 011°00'815.8
2017-Dec-03 01:59N 58°12' E 011°05'817.1
2017-Dec-03 01:30N 58°05' E 011°11'816.1
2017-Dec-03 01:01N 57°57' E 011°16'816.5
2017-Dec-03 00:31N 57°49' E 011°22'816.6
2017-Dec-03 00:01N 57°42' E 011°27'816.4
2017-Dec-02 23:31N 57°34' E 011°34'815.9
2017-Dec-02 23:01N 57°27' E 011°40'816.1
2017-Dec-02 22:31N 57°20' E 011°46'815.2
2017-Dec-02 22:01N 57°13' E 011°53'714.7
2017-Dec-02 21:31N 57°06' E 011°58'814.8
2017-Dec-02 21:00N 56°59' E 012°03'4215.2
2017-Dec-02 18:14N 56°19' E 012°24'417.1
2017-Dec-02 18:00N 56°15' E 012°26'917.3
2017-Dec-02 17:31N 56°08' E 012°33'816.3
2017-Dec-02 17:01N 56°01' E 012°41'815.8
2017-Dec-02 16:31N 55°53' E 012°44'815.4
2017-Dec-02 16:01N 55°46' E 012°41'5 9.3
2017-Dec-02 15:31N 55°42' E 012°36'0 0.0
2017-Dec-02 15:00N 55°42' E 012°36'0 0.0
2017-Dec-02 14:28N 55°42' E 012°36'0 0.0
2017-Dec-02 13:58N 55°42' E 012°36'0 0.0
2017-Dec-02 13:28N 55°42' E 012°36'0 0.0
2017-Dec-02 12:58N 55°42' E 012°36'0 0.0
2017-Dec-02 12:28N 55°42' E 012°36'0 0.0
2017-Dec-02 11:58N 55°42' E 012°36'0 0.0
2017-Dec-02 11:28N 55°42' E 012°36'0 0.0
2017-Dec-02 10:58N 55°42' E 012°36'0 0.0
2017-Dec-02 10:28N 55°42' E 012°36'0 0.0
2017-Dec-02 09:58N 55°42' E 012°36'0 0.0
2017-Dec-02 09:28N 55°42' E 012°36'0 0.0
2017-Dec-02 08:58N 55°42' E 012°36'0 0.6
2017-Dec-02 08:31N 55°42' E 012°36'611.1
2017-Dec-02 08:00N 55°47' E 012°41'815.2
2017-Dec-02 07:30N 55°55' E 012°39'815.7
2017-Dec-02 07:00N 56°02' E 012°39'714.9
2017-Dec-02 06:30N 56°08' E 012°30'815.3
2017-Dec-02 06:00N 56°14' E 012°22'5017.0
2017-Dec-02 03:04N 56°59' E 011°43'116.4
2017-Dec-02 03:00N 57°00' E 011°43'816.3
2017-Dec-02 02:30N 57°08' E 011°38'816.1
2017-Dec-02 02:00N 57°16' E 011°33'816.4
2017-Dec-02 01:30N 57°23' E 011°26'816.2
2017-Dec-02 01:00N 57°31' E 011°21'816.0
2017-Dec-02 00:30N 57°38' E 011°15'815.9
2017-Dec-02 00:00N 57°45' E 011°09'816.1
2017-Dec-01 23:30N 57°53' E 011°04'816.4
2017-Dec-01 23:00N 58°00' E 010°58'816.2
2017-Dec-01 22:30N 58°08' E 010°53'816.0
2017-Dec-01 21:59N 58°16' E 010°47'1115.8
2017-Dec-01 21:18N 58°26' E 010°40'515.7
2017-Dec-01 21:00N 58°30' E 010°37'815.9
2017-Dec-01 20:30N 58°38' E 010°36'816.0
2017-Dec-01 20:00N 58°46' E 010°35'816.2
2017-Dec-01 19:30N 58°54' E 010°36'816.5
2017-Dec-01 19:00N 59°02' E 010°37'917.2
2017-Dec-01 18:30N 59°11' E 010°38'917.3
2017-Dec-01 18:00N 59°20' E 010°35'917.1
2017-Dec-01 17:30N 59°28' E 010°34'  
Track history (hours):
 
Tides and Currents Weather Stations Pressure Air Temp Water Temp Dewpoint Dewpoint Depression Visibility Wind Speed Wind Dir Waves Ship Positions

Crown Of Scandinavia

Last reported at 2017-Dec-11 17:01 UTC. Time now 2017-Dec-12 04:29 UTC.
Position N 59°38' E 010°37'.

Length 171 m; draft 6.3 m.

Type: Ship. MMSI: 219592000.

Date/timePositionNaut miles runAvg speedWind from/ knotsBaromVisibWave heightAir tempDewpointWater temp
2017-Dec-11 17:01N 59°38' E 010°37'714.3
2017-Dec-11 16:30N 59°45' E 010°33'816.0
2017-Dec-11 16:00N 59°52' E 010°38'4 7.4
2017-Dec-11 15:30N 59°54' E 010°45'0 0.0
2017-Dec-11 14:59N 59°54' E 010°45'0 0.0
2017-Dec-11 14:29N 59°54' E 010°45'0 0.0
2017-Dec-11 13:59N 59°54' E 010°45'0 0.0
2017-Dec-11 13:29N 59°54' E 010°45'0 0.0
2017-Dec-11 12:59N 59°54' E 010°45'0 0.0
2017-Dec-11 12:29N 59°54' E 010°45'0 0.0
2017-Dec-11 11:59N 59°54' E 010°45'0 0.0
2017-Dec-11 11:29N 59°54' E 010°45'0 0.0
2017-Dec-11 10:59N 59°54' E 010°45'0 0.0
2017-Dec-11 10:28N 59°54' E 010°45'0 0.0
2017-Dec-11 09:59N 59°54' E 010°45'0 0.0
2017-Dec-11 09:29N 59°54' E 010°45'0 0.0
2017-Dec-11 08:58N 59°54' E 010°45'0 0.5
2017-Dec-11 08:30N 59°54' E 010°44'611.9
2017-Dec-11 08:00N 59°50' E 010°36'714.6
2017-Dec-11 07:30N 59°43' E 010°36'612.8
2017-Dec-11 07:00N 59°36' E 010°38'815.2
2017-Dec-11 06:30N 59°29' E 010°35'715.0
2017-Dec-11 06:01N 59°21' E 010°35'815.3
2017-Dec-11 05:30N 59°14' E 010°38'815.1
2017-Dec-11 05:00N 59°06' E 010°39'815.3
2017-Dec-11 04:31N 58°59' E 010°37'815.8
2017-Dec-11 04:00N 58°51' E 010°38'816.1
2017-Dec-11 03:30N 58°43' E 010°36'816.7
2017-Dec-11 03:00N 58°35' E 010°36'817.0
2017-Dec-11 02:30N 58°26' E 010°39'917.1
2017-Dec-11 02:00N 58°18' E 010°43'816.9
2017-Dec-11 01:30N 58°10' E 010°50'917.0
2017-Dec-11 01:00N 58°02' E 010°56'817.0
2017-Dec-11 00:30N 57°55' E 011°02'816.4
2017-Dec-11 00:00N 57°47' E 011°08'816.1
2017-Dec-10 23:30N 57°40' E 011°15'816.2
2017-Dec-10 23:00N 57°32' E 011°21'816.1
2017-Dec-10 22:30N 57°25' E 011°28'816.4
2017-Dec-10 22:00N 57°18' E 011°33'816.7
2017-Dec-10 21:30N 57°10' E 011°39'816.6
2017-Dec-10 21:00N 57°02' E 011°44'4916.5
2017-Dec-10 18:03N 56°18' E 012°23'116.5
2017-Dec-10 18:00N 56°17' E 012°23'816.6
2017-Dec-10 17:30N 56°10' E 012°29'917.8
2017-Dec-10 17:00N 56°03' E 012°39'917.5
2017-Dec-10 16:30N 55°55' E 012°44'816.2
2017-Dec-10 16:00N 55°47' E 012°42'611.1
2017-Dec-10 15:30N 55°42' E 012°36'0 0.0
2017-Dec-10 14:59N 55°42' E 012°36'0 0.0
2017-Dec-10 14:29N 55°42' E 012°36'0 0.0
2017-Dec-10 13:59N 55°42' E 012°36'0 0.0
2017-Dec-10 13:29N 55°42' E 012°36'0 0.0
2017-Dec-10 12:59N 55°42' E 012°36'0 0.0
2017-Dec-10 12:29N 55°42' E 012°36'0 0.0
2017-Dec-10 11:59N 55°42' E 012°36'0 0.0
2017-Dec-10 11:29N 55°42' E 012°36'0 0.0
2017-Dec-10 10:59N 55°42' E 012°36'0 0.0
2017-Dec-10 10:29N 55°42' E 012°36'0 0.0
2017-Dec-10 09:59N 55°42' E 012°36'0 0.0
2017-Dec-10 09:29N 55°42' E 012°36'0 0.0
2017-Dec-10 08:59N 55°42' E 012°36'0 0.7
2017-Dec-10 08:30N 55°42' E 012°36'612.7
2017-Dec-10 08:00N 55°48' E 012°42'714.4
2017-Dec-10 07:31N 55°55' E 012°38'815.1
2017-Dec-10 07:01N 56°02' E 012°39'815.6
2017-Dec-10 06:31N 56°08' E 012°30'816.1
2017-Dec-10 06:00N 56°16' E 012°25'5815.6
2017-Dec-10 02:19N 57°11' E 011°54'516.6
2017-Dec-10 02:01N 57°16' E 011°51'816.9
2017-Dec-10 01:31N 57°23' E 011°43'917.1
2017-Dec-10 01:01N 57°31' E 011°36'816.7
2017-Dec-10 00:31N 57°38' E 011°29'816.3
2017-Dec-10 00:01N 57°45' E 011°23'917.4
2017-Dec-09 23:31N 57°53' E 011°15'917.1
2017-Dec-09 23:00N 58°01' E 011°07'816.1
2017-Dec-09 22:31N 58°08' E 011°00'815.8
2017-Dec-09 22:01N 58°15' E 010°54'915.9
2017-Dec-09 21:27N 58°23' E 010°47'715.8
2017-Dec-09 21:00N 58°29' E 010°41'816.0
2017-Dec-09 20:30N 58°37' E 010°37'816.1
2017-Dec-09 20:01N 58°45' E 010°35'816.4
2017-Dec-09 19:31N 58°53' E 010°35'917.0
2017-Dec-09 19:01N 59°01' E 010°37'816.8
2017-Dec-09 18:31N 59°10' E 010°38'816.9
2017-Dec-09 18:01N 59°18' E 010°36'817.0
2017-Dec-09 17:31N 59°27' E 010°33'917.0
2017-Dec-09 17:01N 59°35' E 010°38'714.4
2017-Dec-09 16:31N 59°42' E 010°35'815.9
2017-Dec-09 16:01N 59°50' E 010°35'712.9
2017-Dec-09 15:30N 59°54' E 010°45'0 0.4
2017-Dec-09 15:01N 59°54' E 010°45'0 0.0
2017-Dec-09 14:31N 59°54' E 010°45'0 0.0
2017-Dec-09 13:58N 59°54' E 010°45'0 0.0
2017-Dec-09 13:31N 59°54' E 010°45'0 0.0
2017-Dec-09 13:01N 59°54' E 010°45'0 0.0
2017-Dec-09 12:31N 59°54' E 010°45'0 0.0
2017-Dec-09 12:01N 59°54' E 010°45'0 0.0
2017-Dec-09 11:31N 59°54' E 010°45'0 0.0
2017-Dec-09 11:01N 59°54' E 010°45'0 0.0
2017-Dec-09 10:28N 59°54' E 010°45'0 0.0
2017-Dec-09 10:01N 59°54' E 010°45'0 0.0
2017-Dec-09 09:31N 59°54' E 010°45'0 0.0
2017-Dec-09 09:01N 59°54' E 010°45'0 0.5
2017-Dec-09 08:30N 59°54' E 010°44'713.3
2017-Dec-09 08:00N 59°49' E 010°35'815.0
2017-Dec-09 07:30N 59°42' E 010°36'713.7
2017-Dec-09 07:00N 59°35' E 010°38'815.1
2017-Dec-09 06:30N 59°28' E 010°34'714.8
2017-Dec-09 06:00N 59°20' E 010°36'815.5
2017-Dec-09 05:30N 59°13' E 010°38'816.2
2017-Dec-09 05:00N 59°05' E 010°41'815.3
2017-Dec-09 04:30N 58°57' E 010°42'815.3
2017-Dec-09 04:00N 58°50' E 010°44'815.5
2017-Dec-09 03:30N 58°42' E 010°47'815.3
2017-Dec-09 03:00N 58°35' E 010°50'816.1
2017-Dec-09 02:30N 58°27' E 010°55'918.2
2017-Dec-09 02:00N 58°18' E 011°02'918.0
2017-Dec-09 01:31N 58°10' E 011°08'917.9
2017-Dec-09 01:00N 58°02' E 011°13'917.6
2017-Dec-09 00:31N 57°53' E 011°19'816.6
2017-Dec-09 00:00N 57°46' E 011°24'817.0
2017-Dec-08 23:31N 57°38' E 011°29'917.2
2017-Dec-08 23:01N 57°30' E 011°35'816.9
2017-Dec-08 22:31N 57°22' E 011°43'816.5
2017-Dec-08 22:00N 57°15' E 011°50'816.5
2017-Dec-08 21:31N 57°08' E 011°57'4316.4
2017-Dec-08 18:53N 56°27' E 012°21'715.5
2017-Dec-08 18:27N 56°20' E 012°24'715.2
2017-Dec-08 18:00N 56°13' E 012°27'815.5
2017-Dec-08 17:30N 56°07' E 012°33'714.8
2017-Dec-08 17:00N 56°00' E 012°41'816.0
2017-Dec-08 16:30N 55°53' E 012°45'815.7
2017-Dec-08 16:00N 55°45' E 012°41'4 8.1
2017-Dec-08 15:30N 55°42' E 012°36'0 0.0
2017-Dec-08 14:58N 55°42' E 012°36'0 0.0
2017-Dec-08 14:28N 55°42' E 012°36'0 0.0
2017-Dec-08 13:58N 55°42' E 012°36'0 0.0
2017-Dec-08 13:28N 55°42' E 012°36'0 0.0
2017-Dec-08 12:58N 55°42' E 012°36'0 0.0
2017-Dec-08 12:28N 55°42' E 012°36'0 0.0
2017-Dec-08 11:58N 55°42' E 012°36'0 0.0
2017-Dec-08 11:28N 55°42' E 012°36'0 0.0
2017-Dec-08 10:58N 55°42' E 012°36'0 0.0
2017-Dec-08 10:28N 55°42' E 012°36'0 0.0
2017-Dec-08 09:58N 55°42' E 012°36'0 0.0
2017-Dec-08 09:28N 55°42' E 012°36'0 0.0
2017-Dec-08 08:58N 55°42' E 012°36'0 0.9
2017-Dec-08 08:30N 55°42' E 012°36'612.8
2017-Dec-08 08:00N 55°48' E 012°42'816.1
2017-Dec-08 07:30N 55°56' E 012°39'815.9
2017-Dec-08 07:00N 56°04' E 012°38'917.1
2017-Dec-08 06:31N 56°10' E 012°27'918.3
2017-Dec-08 06:00N 56°17' E 012°17'5018.4
2017-Dec-08 03:16N 57°03' E 011°39'518.6
2017-Dec-08 03:00N 57°08' E 011°37'918.7
2017-Dec-08 02:30N 57°17' E 011°31'918.1
2017-Dec-08 02:00N 57°25' E 011°26'816.1
2017-Dec-08 01:30N 57°33' E 011°23'917.4
2017-Dec-08 01:00N 57°42' E 011°19'817.0
2017-Dec-08 00:31N 57°50' E 011°16'815.9
2017-Dec-08 00:00N 57°58' E 011°14'714.5
2017-Dec-07 23:30N 58°05' E 011°10'713.5
2017-Dec-07 23:00N 58°11' E 011°08'714.2
2017-Dec-07 22:31N 58°18' E 011°03'714.2
2017-Dec-07 22:00N 58°24' E 010°58'714.3
2017-Dec-07 21:30N 58°31' E 010°51'713.2
2017-Dec-07 21:00N 58°37' E 010°47'612.5
2017-Dec-07 20:30N 58°43' E 010°47'612.9
2017-Dec-07 20:00N 58°50' E 010°46'713.2
2017-Dec-07 19:30N 58°56' E 010°43'713.2
2017-Dec-07 19:00N 59°03' E 010°41'714.3
2017-Dec-07 18:31N 59°10' E 010°39'816.4
2017-Dec-07 18:01N 59°18' E 010°36'816.7
2017-Dec-07 17:31N 59°26' E 010°33'816.5
2017-Dec-07 17:01N 59°34' E 010°38'714.7
2017-Dec-07 16:30N 59°41' E 010°36'714.8
2017-Dec-07 16:00N 59°48' E 010°34'714.4
2017-Dec-07 15:30N 59°54' E 010°43'1 1.3
2017-Dec-07 15:00N 59°54' E 010°45'0 0.0
2017-Dec-07 14:30N 59°54' E 010°45'0 0.0
2017-Dec-07 14:00N 59°54' E 010°45'0 0.0
2017-Dec-07 13:30N 59°54' E 010°45'0 0.0
2017-Dec-07 13:00N 59°54' E 010°45'0 0.0
2017-Dec-07 12:30N 59°54' E 010°45'0 0.0
2017-Dec-07 12:00N 59°54' E 010°45'0 0.0
2017-Dec-07 11:30N 59°54' E 010°45'0 0.0
2017-Dec-07 11:00N 59°54' E 010°45'0 0.0
2017-Dec-07 10:30N 59°54' E 010°45'0 0.0
2017-Dec-07 10:00N 59°54' E 010°45'0 0.0
2017-Dec-07 09:30N 59°54' E 010°45'0 0.0
2017-Dec-07 09:00N 59°54' E 010°45'1 1.2
2017-Dec-07 08:30N 59°54' E 010°44'613.0
2017-Dec-07 08:01N 59°49' E 010°35'714.2
2017-Dec-07 07:30N 59°42' E 010°36'713.5
2017-Dec-07 07:01N 59°35' E 010°38'816.0
2017-Dec-07 06:30N 59°28' E 010°34'816.4
2017-Dec-07 06:01N 59°20' E 010°36'816.1
2017-Dec-07 05:30N 59°12' E 010°39'815.2
2017-Dec-07 05:00N 59°04' E 010°39'714.9
2017-Dec-07 04:30N 58°56' E 010°40'815.2
2017-Dec-07 04:00N 58°49' E 010°40'815.3
2017-Dec-07 03:31N 58°41' E 010°40'816.4
2017-Dec-07 03:00N 58°33' E 010°41'917.9
2017-Dec-07 02:31N 58°24' E 010°45'917.9
2017-Dec-07 02:01N 58°16' E 010°48'917.8
2017-Dec-07 01:31N 58°07' E 010°50'917.5
2017-Dec-07 01:01N 57°58' E 010°54'917.7
2017-Dec-07 00:30N 57°50' E 010°58'816.5
2017-Dec-07 00:00N 57°42' E 011°04'917.3
2017-Dec-06 23:31N 57°36' E 011°16'917.3
2017-Dec-06 23:01N 57°29' E 011°25'918.0
2017-Dec-06 22:31N 57°21' E 011°32'917.4
2017-Dec-06 22:01N 57°13' E 011°38'917.5
2017-Dec-06 21:30N 57°04' E 011°43'  
2017-Dec-04 10:28N 55°42' E 012°36'0 0.0
2017-Dec-04 09:58N 55°42' E 012°36'0 0.0
2017-Dec-04 09:28N 55°42' E 012°36'0 0.0
2017-Dec-04 08:59N 55°42' E 012°36'1 1.4
2017-Dec-04 08:30N 55°43' E 012°37'612.2
2017-Dec-04 08:00N 55°48' E 012°42'815.4
2017-Dec-04 07:30N 55°55' E 012°39'815.6
2017-Dec-04 07:00N 56°03' E 012°39'816.2
2017-Dec-04 06:30N 56°09' E 012°29'816.5
2017-Dec-04 06:00N 56°17' E 012°23'6016.7
2017-Dec-04 02:23N 57°14' E 011°51'616.8
2017-Dec-04 02:00N 57°20' E 011°46'816.7
2017-Dec-04 01:30N 57°27' E 011°38'917.2
2017-Dec-04 01:01N 57°34' E 011°30'816.5
2017-Dec-04 00:30N 57°41' E 011°21'816.6
2017-Dec-04 00:01N 57°48' E 011°12'816.2
2017-Dec-03 23:31N 57°55' E 011°03'815.6
2017-Dec-03 23:00N 58°02' E 010°57'816.0
2017-Dec-03 22:30N 58°09' E 010°52'916.0
2017-Dec-03 21:58N 58°17' E 010°47'915.5
2017-Dec-03 21:24N 58°26' E 010°41'615.1
2017-Dec-03 21:01N 58°31' E 010°37'815.7
2017-Dec-03 20:30N 58°39' E 010°36'815.6
2017-Dec-03 20:01N 58°47' E 010°35'816.0
2017-Dec-03 19:31N 58°55' E 010°37'816.0
2017-Dec-03 19:00N 59°03' E 010°39'816.1
2017-Dec-03 18:30N 59°11' E 010°38'816.3
2017-Dec-03 18:00N 59°19' E 010°36'816.3
2017-Dec-03 17:30N 59°27' E 010°33'816.1
2017-Dec-03 17:01N 59°35' E 010°38'714.4
2017-Dec-03 16:30N 59°42' E 010°35'815.2
2017-Dec-03 16:00N 59°49' E 010°34'713.7
2017-Dec-03 15:30N 59°54' E 010°44'0 0.4
2017-Dec-03 14:59N 59°54' E 010°45'0 0.0
2017-Dec-03 14:29N 59°54' E 010°45'0 0.0
2017-Dec-03 13:59N 59°54' E 010°45'0 0.0
2017-Dec-03 13:29N 59°54' E 010°45'0 0.0
2017-Dec-03 12:59N 59°54' E 010°45'0 0.0
2017-Dec-03 12:29N 59°54' E 010°45'0 0.0
2017-Dec-03 11:59N 59°54' E 010°45'0 0.0
2017-Dec-03 11:29N 59°54' E 010°45'0 0.0
2017-Dec-03 10:59N 59°54' E 010°45'0 0.0
2017-Dec-03 10:29N 59°54' E 010°45'0 0.0
2017-Dec-03 09:59N 59°54' E 010°45'0 0.0
2017-Dec-03 09:29N 59°54' E 010°45'0 0.2
2017-Dec-03 09:01N 59°54' E 010°45'510.1
2017-Dec-03 08:30N 59°51' E 010°37'815.4
2017-Dec-03 08:01N 59°43' E 010°35'713.7
2017-Dec-03 07:31N 59°37' E 010°38'815.5
2017-Dec-03 07:01N 59°29' E 010°35'815.4
2017-Dec-03 06:31N 59°21' E 010°35'815.7
2017-Dec-03 06:01N 59°14' E 010°38'815.9
2017-Dec-03 05:31N 59°06' E 010°40'815.8
2017-Dec-03 05:01N 58°58' E 010°42'815.9
2017-Dec-03 04:31N 58°50' E 010°44'816.0
2017-Dec-03 04:01N 58°42' E 010°45'816.1
2017-Dec-03 03:31N 58°34' E 010°50'815.5
2017-Dec-03 03:01N 58°27' E 010°55'815.1
2017-Dec-03 02:30N 58°20' E 011°00'815.8
2017-Dec-03 01:59N 58°12' E 011°05'817.1
2017-Dec-03 01:30N 58°05' E 011°11'816.1
2017-Dec-03 01:01N 57°57' E 011°16'816.5
2017-Dec-03 00:31N 57°49' E 011°22'816.6
2017-Dec-03 00:01N 57°42' E 011°27'816.4
2017-Dec-02 23:31N 57°34' E 011°34'815.9
2017-Dec-02 23:01N 57°27' E 011°40'816.1
2017-Dec-02 22:31N 57°20' E 011°46'815.2
2017-Dec-02 22:01N 57°13' E 011°53'714.7
2017-Dec-02 21:31N 57°06' E 011°58'814.8
2017-Dec-02 21:00N 56°59' E 012°03'4215.2
2017-Dec-02 18:14N 56°19' E 012°24'417.1
2017-Dec-02 18:00N 56°15' E 012°26'917.3
2017-Dec-02 17:31N 56°08' E 012°33'816.3
2017-Dec-02 17:01N 56°01' E 012°41'815.8
2017-Dec-02 16:31N 55°53' E 012°44'815.4
2017-Dec-02 16:01N 55°46' E 012°41'5 9.3
2017-Dec-02 15:31N 55°42' E 012°36'0 0.0
2017-Dec-02 15:00N 55°42' E 012°36'0 0.0
2017-Dec-02 14:28N 55°42' E 012°36'0 0.0
2017-Dec-02 13:58N 55°42' E 012°36'0 0.0
2017-Dec-02 13:28N 55°42' E 012°36'0 0.0
2017-Dec-02 12:58N 55°42' E 012°36'0 0.0
2017-Dec-02 12:28N 55°42' E 012°36'0 0.0
2017-Dec-02 11:58N 55°42' E 012°36'0 0.0
2017-Dec-02 11:28N 55°42' E 012°36'0 0.0
2017-Dec-02 10:58N 55°42' E 012°36'0 0.0
2017-Dec-02 10:28N 55°42' E 012°36'0 0.0
2017-Dec-02 09:58N 55°42' E 012°36'0 0.0
2017-Dec-02 09:28N 55°42' E 012°36'0 0.0
2017-Dec-02 08:58N 55°42' E 012°36'0 0.6
2017-Dec-02 08:31N 55°42' E 012°36'611.1
2017-Dec-02 08:00N 55°47' E 012°41'815.2
2017-Dec-02 07:30N 55°55' E 012°39'815.7
2017-Dec-02 07:00N 56°02' E 012°39'714.9
2017-Dec-02 06:30N 56°08' E 012°30'815.3
2017-Dec-02 06:00N 56°14' E 012°22'5017.0
2017-Dec-02 03:04N 56°59' E 011°43'116.4
2017-Dec-02 03:00N 57°00' E 011°43'816.3
2017-Dec-02 02:30N 57°08' E 011°38'816.1
2017-Dec-02 02:00N 57°16' E 011°33'816.4
2017-Dec-02 01:30N 57°23' E 011°26'816.2
2017-Dec-02 01:00N 57°31' E 011°21'816.0
2017-Dec-02 00:30N 57°38' E 011°15'815.9
2017-Dec-02 00:00N 57°45' E 011°09'816.1
2017-Dec-01 23:30N 57°53' E 011°04'816.4
2017-Dec-01 23:00N 58°00' E 010°58'816.2
2017-Dec-01 22:30N 58°08' E 010°53'816.0
2017-Dec-01 21:59N 58°16' E 010°47'1115.8
2017-Dec-01 21:18N 58°26' E 010°40'515.7
2017-Dec-01 21:00N 58°30' E 010°37'815.9
2017-Dec-01 20:30N 58°38' E 010°36'816.0
2017-Dec-01 20:00N 58°46' E 010°35'816.2
2017-Dec-01 19:30N 58°54' E 010°36'816.5
2017-Dec-01 19:00N 59°02' E 010°37'917.2
2017-Dec-01 18:30N 59°11' E 010°38'917.3
2017-Dec-01 18:00N 59°20' E 010°35'917.1
2017-Dec-01 17:30N 59°28' E 010°34'  

Dump ship's entire track history